Time;durP1;ratioP1;P1;durP2;ratioP2;P2;SDS_P1;SDS_P2;PMS_P1;PMS_P2;Temp;Humidity;BMP_temperature;BMP_pressure;BME280_temperature;BME280_humidity;BME280_pressure;Samples;Min_cycle;Max_cycle;Signal;HPM_P1;HPM_P2
2023/03/05 00:00:24;;;;;;;0.68;0.68;;;2.60;99.90;;;;;;4951574;28;20228;-86
2023/03/05 00:02:49;;;;;;;0.70;0.70;;;2.60;99.90;;;;;;4950571;28;20047;-86
2023/03/05 00:05:15;;;;;;;0.70;0.70;;;2.60;99.90;;;;;;4951654;28;20047;-86
2023/03/05 00:07:41;;;;;;;0.60;0.60;;;2.70;99.90;;;;;;4969504;28;20081;-88
2023/03/05 00:10:07;;;;;;;0.68;0.68;;;2.60;99.90;;;;;;4931187;28;20387;-89
2023/03/05 00:12:32;;;;;;;0.90;0.90;;;2.70;99.90;;;;;;4927996;28;20039;-88
2023/03/05 00:14:58;;;;;;;0.60;0.60;;;2.70;99.90;;;;;;4935849;28;20046;-87
2023/03/05 00:17:24;;;;;;;0.70;0.70;;;2.60;99.90;;;;;;4954712;28;20035;-88
2023/03/05 00:19:49;;;;;;;0.75;0.75;;;2.70;99.90;;;;;;4955827;28;20538;-89
2023/03/05 00:22:15;;;;;;;0.60;0.60;;;2.60;99.90;;;;;;5027639;28;20078;-87
2023/03/05 00:24:41;;;;;;;0.68;0.68;;;3.90;99.90;;;;;;4953520;28;20100;-87
2023/03/05 00:27:07;;;;;;;0.63;0.63;;;2.70;99.90;;;;;;4941075;28;20686;-88
2023/03/05 00:29:32;;;;;;;0.80;0.80;;;2.60;99.90;;;;;;4942438;28;20377;-87
2023/03/05 00:31:58;;;;;;;0.80;0.80;;;3.10;99.90;;;;;;5039214;28;20076;-87
2023/03/05 00:34:24;;;;;;;0.70;0.70;;;3.20;99.90;;;;;;4935558;28;20484;-87
2023/03/05 00:36:51;;;;;;;0.68;0.68;;;2.50;99.90;;;;;;4948817;28;20057;-88
2023/03/05 00:39:18;;;;;;;0.70;0.70;;;2.60;99.90;;;;;;4970574;28;20122;-88
2023/03/05 00:41:45;;;;;;;0.63;0.63;;;2.60;99.90;;;;;;4956533;28;20070;-86
2023/03/05 00:44:11;;;;;;;0.70;0.70;;;2.60;99.90;;;;;;4936564;28;20067;-87
2023/03/05 00:46:37;;;;;;;0.70;0.70;;;2.60;99.90;;;;;;4939080;28;20039;-89
2023/03/05 00:49:03;;;;;;;0.68;0.68;;;2.60;99.90;;;;;;4938584;28;20049;-90
2023/03/05 00:51:29;;;;;;;0.70;0.70;;;4.00;99.90;;;;;;4922995;28;20488;-87
2023/03/05 00:53:55;;;;;;;;;;;3.00;99.90;;;;;;4953139;28;20035;-89
2023/03/05 00:56:21;;;;;;;0.60;0.60;;;3.60;99.90;;;;;;4963278;28;20008;-90
2023/03/05 00:58:47;;;;;;;0.80;0.80;;;2.70;99.90;;;;;;4941973;28;20381;-90
2023/03/05 01:01:13;;;;;;;0.63;0.63;;;2.70;99.90;;;;;;4929736;29;20050;-88
2023/03/05 01:03:39;;;;;;;0.70;0.70;;;3.40;99.90;;;;;;4970071;28;20051;-89
2023/03/05 01:06:08;;;;;;;0.70;0.70;;;4.00;99.90;;;;;;4968396;28;20043;-89
2023/03/05 01:08:34;;;;;;;0.70;0.70;;;2.80;99.90;;;;;;4968245;28;20035;-90
2023/03/05 01:11:00;;;;;;;0.60;0.60;;;2.90;99.90;;;;;;4941606;28;20038;-88
2023/03/05 01:13:26;;;;;;;;;;;3.40;99.90;;;;;;4934918;28;20438;-88
2023/03/05 01:15:51;;;;;;;0.60;0.60;;;3.60;99.90;;;;;;4935250;28;19919;-90
2023/03/05 01:18:19;;;;;;;0.70;0.70;;;2.80;99.90;;;;;;4949883;28;20396;-88
2023/03/05 01:20:45;;;;;;;0.80;0.80;;;2.90;99.90;;;;;;4954407;28;20464;-88
2023/03/05 01:23:11;;;;;;;0.70;0.70;;;2.90;99.90;;;;;;4966724;28;20101;-89
2023/03/05 01:25:37;;;;;;;0.70;0.70;;;2.80;99.90;;;;;;4932728;28;20035;-88
2023/03/05 01:28:03;;;;;;;0.60;0.60;;;4.00;99.90;;;;;;4950792;28;20049;-87
2023/03/05 01:30:29;;;;;;;0.63;0.63;;;2.80;99.90;;;;;;4939529;28;20130;-86
2023/03/05 01:32:55;;;;;;;0.77;0.77;;;2.70;99.90;;;;;;4945087;28;20073;-89
2023/03/05 01:35:23;;;;;;;0.75;0.75;;;2.70;99.90;;;;;;4949950;28;20050;-88
2023/03/05 01:37:49;;;;;;;10.30;3.10;;;2.60;99.90;;;;;;5038239;28;20591;-90
2023/03/05 01:40:19;;;;;;;0.73;0.73;;;2.60;99.90;;;;;;4947925;28;20055;-89
2023/03/05 01:42:46;;;;;;;0.70;0.70;;;2.50;99.90;;;;;;4949726;28;20039;-88
2023/03/05 01:45:17;;;;;;;0.60;0.60;;;2.50;99.90;;;;;;4935499;28;20050;-90
2023/03/05 01:47:43;;;;;;;0.75;0.75;;;2.40;99.90;;;;;;4971948;28;20062;-88
2023/03/05 01:50:15;;;;;;;0.60;0.60;;;2.40;99.90;;;;;;4963266;28;20051;-88
2023/03/05 01:52:48;;;;;;;0.70;0.70;;;2.40;99.90;;;;;;4968288;28;20031;-89
2023/03/05 01:55:18;;;;;;;0.60;0.60;;;2.40;99.90;;;;;;4975325;28;20031;-87
2023/03/05 01:57:58;;;;;;;0.63;0.63;;;3.40;99.90;;;;;;4987044;28;20026;-88
2023/03/05 02:00:32;;;;;;;0.70;0.70;;;2.50;99.90;;;;;;4970093;28;20472;-87
2023/03/05 02:03:02;;;;;;;0.70;0.70;;;2.60;99.90;;;;;;4952716;28;20081;-87
2023/03/05 02:05:31;;;;;;;0.60;0.60;;;3.60;99.90;;;;;;4943957;28;20400;-87
2023/03/05 02:08:02;;;;;;;3.42;3.33;;;2.50;99.90;;;;;;4963893;28;20057;-87
2023/03/05 02:10:31;;;;;;;0.57;0.57;;;2.40;99.90;;;;;;4951383;28;20412;-86
2023/03/05 02:13:00;;;;;;;0.60;0.60;;;2.70;99.90;;;;;;4949865;28;20043;-87
2023/03/05 02:15:28;;;;;;;0.68;0.68;;;2.40;99.90;;;;;;4965248;28;20046;-88
2023/03/05 02:17:53;;;;;;;0.70;0.70;;;2.40;99.90;;;;;;4941211;28;20043;-87
2023/03/05 02:20:25;;;;;;;0.60;0.60;;;2.60;99.90;;;;;;4973799;28;20072;-87
2023/03/05 02:22:51;;;;;;;0.70;0.70;;;2.10;99.90;;;;;;4963541;28;20132;-88
2023/03/05 02:25:18;;;;;;;0.80;0.80;;;2.30;99.90;;;;;;4952426;28;20043;-89
2023/03/05 02:28:00;;;;;;;0.80;0.80;;;2.30;99.90;;;;;;4954167;28;20053;-88
2023/03/05 02:30:27;;;;;;;0.60;0.60;;;3.40;99.90;;;;;;4950663;28;20050;-89
2023/03/05 02:32:53;;;;;;;0.60;0.60;;;3.10;99.90;;;;;;4964558;28;20049;-88
2023/03/05 02:35:19;;;;;;;0.80;0.80;;;2.30;99.90;;;;;;4959521;28;20544;-89
2023/03/05 02:37:44;;;;;;;0.50;0.50;;;2.00;99.90;;;;;;4950823;28;20041;-87
2023/03/05 02:40:11;;;;;;;0.60;0.60;;;2.30;99.90;;;;;;4941302;28;20072;-89
2023/03/05 02:42:38;;;;;;;0.60;0.60;;;2.30;99.90;;;;;;4950385;28;20046;-87
2023/03/05 02:45:04;;;;;;;;;;;2.30;99.90;;;;;;4955329;28;20306;-88
2023/03/05 02:47:29;;;;;;;0.63;0.63;;;2.20;99.90;;;;;;4970973;28;20321;-86
2023/03/05 02:49:55;;;;;;;0.70;0.70;;;2.40;99.90;;;;;;4942952;28;20050;-88
2023/03/05 02:52:24;;;;;;;0.68;0.68;;;2.70;99.90;;;;;;4950846;28;20042;-87
2023/03/05 02:54:50;;;;;;;0.60;0.60;;;2.20;99.90;;;;;;4950988;28;20061;-88
2023/03/05 02:57:17;;;;;;;0.60;0.60;;;3.40;99.90;;;;;;4933381;28;20395;-88
2023/03/05 02:59:43;;;;;;;0.65;0.65;;;2.30;99.90;;;;;;4949049;28;20046;-88
2023/03/05 03:02:09;;;;;;;0.60;0.60;;;2.30;99.90;;;;;;4949199;28;20054;-87
2023/03/05 03:04:35;;;;;;;0.65;0.65;;;2.40;99.90;;;;;;4958059;28;20047;-88
2023/03/05 03:07:00;;;;;;;0.57;0.57;;;2.40;99.90;;;;;;4948499;28;20043;-89
2023/03/05 03:09:26;;;;;;;0.70;0.70;;;2.40;99.90;;;;;;4928038;28;20046;-88
2023/03/05 03:11:52;;;;;;;0.60;0.60;;;2.50;99.90;;;;;;4962853;28;20039;-89
2023/03/05 03:14:18;;;;;;;0.63;0.63;;;2.30;99.90;;;;;;4967877;28;20652;-89
2023/03/05 03:16:44;;;;;;;0.77;0.77;;;3.10;99.90;;;;;;4945192;28;20047;-88
2023/03/05 03:19:10;;;;;;;0.60;0.60;;;2.00;99.90;;;;;;4943544;28;20488;-87
2023/03/05 03:21:36;;;;;;;0.70;0.70;;;2.00;99.90;;;;;;4969260;28;20039;-89
2023/03/05 03:24:01;;;;;;;0.60;0.60;;;2.00;99.90;;;;;;5028274;28;20047;-88
2023/03/05 03:26:27;;;;;;;0.60;0.60;;;2.00;99.90;;;;;;4957385;28;20054;-88
2023/03/05 03:28:53;;;;;;;0.75;0.75;;;3.20;99.90;;;;;;4951144;28;20078;-88
2023/03/05 03:31:19;;;;;;;0.73;0.73;;;2.60;99.90;;;;;;4948867;28;20078;-88
2023/03/05 03:33:44;;;;;;;0.65;0.65;;;1.80;99.90;;;;;;4951182;28;20125;-89
2023/03/05 03:36:10;;;;;;;0.70;0.70;;;1.80;99.90;;;;;;4932871;28;20043;-90
2023/03/05 03:38:36;;;;;;;1.15;1.13;;;2.50;99.90;;;;;;4949170;28;20134;-88
2023/03/05 03:41:06;;;;;;;0.50;0.50;;;1.80;99.90;;;;;;4944369;28;20143;-92
2023/03/05 03:43:33;;;;;;;0.70;0.70;;;1.80;99.90;;;;;;4969125;28;20066;-91
2023/03/05 03:45:58;;;;;;;0.60;0.60;;;3.10;99.90;;;;;;4935150;28;20076;-91
2023/03/05 03:48:24;;;;;;;0.63;0.63;;;2.90;99.90;;;;;;4952178;28;20121;-90
2023/03/05 03:50:50;;;;;;;1.60;1.50;;;1.90;99.90;;;;;;4972992;28;20040;-90
2023/03/05 03:53:16;;;;;;;0.65;0.65;;;3.00;99.90;;;;;;4953780;28;20067;-89
2023/03/05 03:55:42;;;;;;;0.70;0.70;;;3.20;99.90;;;;;;4910954;28;20054;-88
2023/03/05 03:58:08;;;;;;;0.75;0.75;;;2.60;99.90;;;;;;4965898;28;20039;-90
2023/03/05 04:00:34;;;;;;;0.68;0.68;;;3.30;99.90;;;;;;4970563;28;20043;-90
2023/03/05 04:03:00;;;;;;;0.70;0.70;;;1.90;99.90;;;;;;4954284;28;20035;-91
2023/03/05 04:05:26;;;;;;;2.67;1.08;;;1.90;99.90;;;;;;4952272;28;20126;-90
2023/03/05 04:07:51;;;;;;;0.70;0.70;;;1.80;99.90;;;;;;4950472;28;20385;-88
2023/03/05 04:10:17;;;;;;;0.70;0.70;;;1.80;99.90;;;;;;4954853;28;20053;-90
2023/03/05 04:12:45;;;;;;;0.80;0.80;;;1.80;99.90;;;;;;4954018;28;20072;-90
2023/03/05 04:15:11;;;;;;;0.80;0.80;;;1.80;99.90;;;;;;4939225;28;20043;-90
2023/03/05 04:17:36;;;;;;;;;;;2.80;99.90;;;;;;4951035;28;20365;-89
2023/03/05 04:20:04;;;;;;;0.60;0.60;;;2.00;99.90;;;;;;4946816;28;19940;-90
2023/03/05 04:22:30;;;;;;;0.60;0.60;;;1.60;99.90;;;;;;4962736;28;20092;-90
2023/03/05 04:24:56;;;;;;;0.65;0.65;;;2.90;99.90;;;;;;4970569;28;21779;-91
2023/03/05 04:27:21;;;;;;;0.60;0.60;;;1.60;99.90;;;;;;4937822;28;20068;-90
2023/03/05 04:29:47;;;;;;;0.70;0.70;;;1.60;99.90;;;;;;4915913;28;20484;-88
2023/03/05 04:32:13;;;;;;;0.70;0.70;;;2.20;99.90;;;;;;4959058;28;20109;-87
2023/03/05 04:34:39;;;;;;;0.70;0.70;;;1.90;99.90;;;;;;4936410;28;20043;-86
2023/03/05 04:37:04;;;;;;;0.80;0.80;;;3.20;99.90;;;;;;4948767;28;20450;-86
2023/03/05 04:39:30;;;;;;;0.70;0.70;;;1.70;99.90;;;;;;4936469;28;20035;-88
2023/03/05 04:41:56;;;;;;;0.70;0.70;;;1.70;99.90;;;;;;4971635;28;20047;-88
2023/03/05 04:44:24;;;;;;;0.80;0.80;;;2.80;99.90;;;;;;4938773;28;20400;-87
2023/03/05 04:46:49;;;;;;;0.70;0.70;;;2.50;99.90;;;;;;4951943;28;20554;-90
2023/03/05 04:49:15;;;;;;;0.70;0.70;;;1.80;99.90;;;;;;4967227;28;20039;-87
2023/03/05 04:51:41;;;;;;;0.60;0.60;;;3.20;99.90;;;;;;4969681;28;20149;-88
2023/03/05 04:54:07;;;;;;;1.02;1.02;;;2.70;99.90;;;;;;4951781;28;20045;-88
2023/03/05 04:56:33;;;;;;;0.57;0.57;;;1.90;99.90;;;;;;5035012;28;20035;-90
2023/03/05 04:58:59;;;;;;;0.70;0.70;;;2.00;99.90;;;;;;4944925;28;20150;-89
2023/03/05 05:01:25;;;;;;;0.60;0.60;;;1.90;99.90;;;;;;4936342;28;20118;-88
2023/03/05 05:03:51;;;;;;;0.60;0.60;;;1.90;99.90;;;;;;4921139;28;20491;-89
2023/03/05 05:06:16;;;;;;;;;;;1.90;99.90;;;;;;4972649;28;20057;-89
2023/03/05 05:08:42;;;;;;;0.70;0.70;;;2.50;99.90;;;;;;4969106;28;20012;-88
2023/03/05 05:11:12;;;;;;;0.70;0.70;;;2.10;99.90;;;;;;4918030;28;20117;-88
2023/03/05 05:13:38;;;;;;;0.52;0.52;;;2.10;99.90;;;;;;4967318;28;20043;-88
2023/03/05 05:16:07;;;;;;;0.70;0.70;;;2.10;99.90;;;;;;4939653;28;20138;-91
2023/03/05 05:18:33;;;;;;;0.60;0.60;;;2.20;99.90;;;;;;4951154;28;20035;-88
2023/03/05 05:20:59;;;;;;;0.50;0.50;;;2.90;99.90;;;;;;5037273;28;20140;-89
2023/03/05 05:23:25;;;;;;;0.55;0.55;;;1.90;99.90;;;;;;4950483;28;20046;-88
2023/03/05 05:25:55;;;;;;;;;;;1.50;99.90;;;;;;4960589;28;20129;-91
2023/03/05 05:28:20;;;;;;;0.63;0.63;;;2.00;99.90;;;;;;4978409;28;20009;-89
2023/03/05 05:30:46;;;;;;;0.50;0.50;;;2.40;99.90;;;;;;4959193;28;20108;-92
2023/03/05 05:33:12;;;;;;;0.60;0.60;;;1.90;99.90;;;;;;4941888;28;20047;-88
2023/03/05 05:35:38;;;;;;;0.50;0.50;;;2.70;99.90;;;;;;4924103;28;20377;-89
2023/03/05 05:38:04;;;;;;;0.70;0.70;;;1.80;99.90;;;;;;4951726;28;20042;-87
2023/03/05 05:40:30;;;;;;;0.60;0.60;;;1.80;99.90;;;;;;4957120;28;20043;-89
2023/03/05 05:42:55;;;;;;;0.60;0.60;;;1.70;99.90;;;;;;4942955;28;20150;-86
2023/03/05 05:45:21;;;;;;;0.73;0.73;;;2.50;99.90;;;;;;5028655;28;20408;-87
2023/03/05 05:47:47;;;;;;;0.70;0.70;;;2.60;99.90;;;;;;4967230;28;20074;-88
2023/03/05 05:50:13;;;;;;;0.80;0.80;;;1.60;99.90;;;;;;4970646;28;20130;-89
2023/03/05 05:52:39;;;;;;;0.60;0.60;;;1.50;99.90;;;;;;5042549;28;20043;-87
2023/03/05 05:55:06;;;;;;;0.80;0.80;;;1.60;99.90;;;;;;4919864;28;20046;-89
2023/03/05 05:57:32;;;;;;;;;;;1.40;99.90;;;;;;5037913;28;20118;-88
2023/03/05 05:59:58;;;;;;;0.90;0.90;;;1.40;99.90;;;;;;4947899;28;19996;-85
2023/03/05 06:02:26;;;;;;;0.73;0.73;;;1.30;99.90;;;;;;4952872;28;20038;-87
2023/03/05 06:04:51;;;;;;;0.77;0.77;;;1.30;99.90;;;;;;4949328;28;20662;-87
2023/03/05 06:07:17;;;;;;;0.60;0.60;;;1.30;99.90;;;;;;4958302;28;20077;-89
2023/03/05 06:09:43;;;;;;;0.60;0.60;;;1.30;99.90;;;;;;4959861;28;20058;-88
2023/03/05 06:12:09;;;;;;;0.70;0.70;;;1.30;99.90;;;;;;4949837;28;20043;-87
2023/03/05 06:14:34;;;;;;;0.73;0.73;;;1.30;99.90;;;;;;4942552;28;20041;-90
2023/03/05 06:17:00;;;;;;;0.80;0.80;;;1.30;99.90;;;;;;4952855;28;20037;-87
2023/03/05 06:19:26;;;;;;;0.80;0.80;;;1.70;99.90;;;;;;4959761;28;20047;-86
2023/03/05 06:21:51;;;;;;;0.70;0.70;;;2.40;99.90;;;;;;4949034;28;20086;-86
2023/03/05 06:24:18;;;;;;;0.70;0.70;;;1.40;99.90;;;;;;4954939;28;20091;-86
2023/03/05 06:26:45;;;;;;;0.82;0.82;;;1.50;99.90;;;;;;4936870;28;20096;-87
2023/03/05 06:29:11;;;;;;;0.80;0.80;;;1.50;99.90;;;;;;4946489;28;20501;-87
2023/03/05 06:31:38;;;;;;;0.80;0.80;;;1.70;99.90;;;;;;4966924;28;20063;-87
2023/03/05 06:34:04;;;;;;;0.70;0.70;;;1.70;99.90;;;;;;4951268;28;20048;-86
2023/03/05 06:36:30;;;;;;;0.80;0.80;;;1.70;99.90;;;;;;4951101;28;20066;-89
2023/03/05 06:38:57;;;;;;;0.60;0.60;;;1.70;99.90;;;;;;4967833;28;20039;-87
2023/03/05 06:41:26;;;;;;;0.70;0.70;;;1.80;99.90;;;;;;4977775;28;20509;-88
2023/03/05 06:43:52;;;;;;;0.60;0.60;;;1.80;99.90;;;;;;4969141;28;20543;-88
2023/03/05 06:46:21;;;;;;;0.88;0.88;;;1.80;99.90;;;;;;4951777;28;20077;-87
2023/03/05 06:48:47;;;;;;;0.80;0.80;;;1.80;99.90;;;;;;4954292;28;20053;-87
2023/03/05 06:51:15;;;;;;;0.60;0.60;;;2.40;99.90;;;;;;4954350;28;20034;-87
2023/03/05 06:53:42;;;;;;;0.70;0.70;;;1.90;99.90;;;;;;4967680;28;20144;-88
2023/03/05 06:56:08;;;;;;;0.70;0.70;;;3.20;99.90;;;;;;4962323;28;20087;-87
2023/03/05 06:58:34;;;;;;;0.68;0.68;;;2.10;99.90;;;;;;4956630;28;20101;-89
2023/03/05 07:01:00;;;;;;;0.75;0.75;;;2.00;99.90;;;;;;4957994;28;20042;-85
2023/03/05 07:03:25;;;;;;;0.75;0.75;;;2.00;99.90;;;;;;4948411;28;20031;-86
2023/03/05 07:05:51;;;;;;;0.70;0.70;;;2.10;99.90;;;;;;4944304;28;20039;-83
2023/03/05 07:08:17;;;;;;;0.70;0.70;;;2.00;99.90;;;;;;4971535;28;20043;-87
2023/03/05 07:10:43;;;;;;;0.60;0.60;;;2.20;99.90;;;;;;4948191;28;20035;-85
2023/03/05 07:13:09;;;;;;;0.70;0.70;;;2.80;99.90;;;;;;4953698;28;20111;-86
2023/03/05 07:15:38;;;;;;;0.70;0.70;;;2.20;99.90;;;;;;5027722;28;20441;-87
2023/03/05 07:18:04;;;;;;;0.60;0.60;;;2.20;99.90;;;;;;4949307;28;20081;-87
2023/03/05 07:20:32;;;;;;;0.60;0.60;;;2.20;99.90;;;;;;4968147;28;20054;-87
2023/03/05 07:22:58;;;;;;;0.60;0.60;;;2.20;99.90;;;;;;4968755;28;20062;-86
2023/03/05 07:25:23;;;;;;;0.60;0.60;;;2.30;99.90;;;;;;4945918;28;20082;-87
2023/03/05 07:27:50;;;;;;;0.70;0.70;;;2.40;99.90;;;;;;4964407;28;20043;-87
2023/03/05 07:30:16;;;;;;;0.57;0.57;;;2.40;99.90;;;;;;4954542;28;20043;-87
2023/03/05 07:32:42;;;;;;;;;;;2.50;99.90;;;;;;4953755;28;20031;-86
2023/03/05 07:35:08;;;;;;;0.60;0.60;;;2.50;99.90;;;;;;4949006;28;19929;-86
2023/03/05 07:37:33;;;;;;;;;;;2.60;99.90;;;;;;4933180;28;20043;-85
2023/03/05 07:39:59;;;;;;;0.60;0.60;;;2.60;99.90;;;;;;4934947;28;20291;-87
2023/03/05 07:42:25;;;;;;;0.60;0.60;;;3.30;99.90;;;;;;4959122;28;20400;-86
2023/03/05 07:44:51;;;;;;;0.70;0.70;;;2.70;99.90;;;;;;4951691;28;20411;-86
2023/03/05 07:47:16;;;;;;;0.70;0.70;;;2.80;99.90;;;;;;4934872;28;20050;-86
2023/03/05 07:49:42;;;;;;;0.70;0.70;;;2.80;99.90;;;;;;4958388;28;20108;-85
2023/03/05 07:52:08;;;;;;;0.70;0.70;;;2.90;99.90;;;;;;4945746;28;20031;-87
2023/03/05 07:54:37;;;;;;;;;;;2.90;99.90;;;;;;4944157;28;20067;-86
2023/03/05 07:57:03;;;;;;;0.50;0.50;;;3.00;99.90;;;;;;4967948;28;20000;-85
2023/03/05 07:59:29;;;;;;;0.68;0.68;;;3.10;99.90;;;;;;4951969;28;20388;-87
2023/03/05 08:01:55;;;;;;;0.60;0.60;;;3.20;99.90;;;;;;4946100;28;20083;-87
2023/03/05 08:04:28;;;;;;;0.40;0.40;;;3.30;99.90;;;;;;4931895;28;20096;-86
2023/03/05 08:06:54;;;;;;;0.65;0.65;;;3.40;99.90;;;;;;4960171;28;20035;-87
2023/03/05 08:09:20;;;;;;;0.63;0.63;;;3.90;99.90;;;;;;4983892;28;20071;-86
2023/03/05 08:11:45;;;;;;;0.65;0.65;;;3.60;99.90;;;;;;4961788;28;20085;-87
2023/03/05 08:14:11;;;;;;;0.55;0.55;;;3.60;99.90;;;;;;4971227;28;20043;-86
2023/03/05 08:16:39;;;;;;;0.65;0.65;;;3.60;99.90;;;;;;4950100;28;20500;-86
2023/03/05 08:19:04;;;;;;;0.70;0.70;;;3.70;99.90;;;;;;4949362;28;20476;-85
2023/03/05 08:21:33;;;;;;;0.60;0.60;;;3.70;99.90;;;;;;4953245;28;20096;-86
2023/03/05 08:24:04;;;;;;;0.70;0.70;;;3.70;99.90;;;;;;4968211;28;20077;-86
2023/03/05 08:26:32;;;;;;;0.60;0.60;;;3.70;99.90;;;;;;4955602;28;20078;-86
2023/03/05 08:28:59;;;;;;;0.60;0.60;;;3.70;99.90;;;;;;4961079;28;20035;-86
2023/03/05 08:31:26;;;;;;;3.60;1.58;;;3.80;99.90;;;;;;4922216;28;20040;-85
2023/03/05 08:33:54;;;;;;;0.50;0.50;;;3.90;99.90;;;;;;4954887;28;20104;-87
2023/03/05 08:36:20;;;;;;;0.60;0.60;;;4.10;99.90;;;;;;4946131;28;20035;-87
2023/03/05 08:38:47;;;;;;;;;;;4.20;99.90;;;;;;4951284;28;20046;-86
2023/03/05 08:41:16;;;;;;;1.02;1.02;;;4.40;99.90;;;;;;4980338;28;19917;-86
2023/03/05 08:43:43;;;;;;;0.60;0.60;;;4.50;99.90;;;;;;4971583;28;20083;-87
2023/03/05 08:46:11;;;;;;;0.52;0.52;;;4.50;99.90;;;;;;4968839;28;20062;-87
2023/03/05 08:48:37;;;;;;;1.50;1.45;;;4.50;99.90;;;;;;4952957;29;20046;-87
2023/03/05 08:51:14;;;;;;;0.50;0.50;;;4.50;99.90;;;;;;4936474;28;20797;-87
2023/03/05 08:53:41;;;;;;;0.50;0.50;;;4.60;99.90;;;;;;4955376;28;20031;-87
2023/03/05 08:56:07;;;;;;;0.70;0.70;;;4.60;99.90;;;;;;4939843;28;20492;-89
2023/03/05 08:58:33;;;;;;;2.45;2.35;;;4.70;99.90;;;;;;4955587;28;20031;-87
2023/03/05 09:00:59;;;;;;;0.55;0.55;;;4.70;99.90;;;;;;4972951;28;20713;-85
2023/03/05 09:03:25;;;;;;;0.50;0.50;;;4.70;99.90;;;;;;4922454;28;20035;-85
2023/03/05 09:05:51;;;;;;;;;;;4.70;99.90;;;;;;4944521;28;20047;-86
2023/03/05 09:08:17;;;;;;;0.60;0.60;;;4.70;99.90;;;;;;4971504;28;19944;-86
2023/03/05 09:10:43;;;;;;;;;;;4.60;99.90;;;;;;4946151;28;20054;-88
2023/03/05 09:13:09;;;;;;;0.70;0.70;;;4.40;99.90;;;;;;4947359;28;20021;-86
2023/03/05 09:15:36;;;;;;;0.50;0.50;;;4.20;99.90;;;;;;4957689;28;20039;-85
2023/03/05 09:18:01;;;;;;;0.70;0.70;;;4.10;99.90;;;;;;4969316;28;20841;-87
2023/03/05 09:20:28;;;;;;;0.40;0.40;;;4.00;99.90;;;;;;4965311;28;20129;-87
2023/03/05 09:22:53;;;;;;;;;;;4.40;99.90;;;;;;4990208;28;20122;-87
2023/03/05 09:25:19;;;;;;;0.70;0.70;;;3.90;99.90;;;;;;4950254;28;20001;-87
2023/03/05 09:27:45;;;;;;;;;;;3.90;99.90;;;;;;4965111;28;20051;-87
2023/03/05 09:30:12;;;;;;;0.57;0.57;;;4.10;99.90;;;;;;4968778;28;19922;-88
2023/03/05 09:32:38;;;;;;;0.60;0.60;;;4.30;99.90;;;;;;4966283;28;20433;-87
2023/03/05 09:35:05;;;;;;;0.70;0.70;;;4.50;99.90;;;;;;4954506;28;20039;-89
2023/03/05 09:37:30;;;;;;;0.70;0.70;;;4.70;99.90;;;;;;4954297;28;20043;-86
2023/03/05 09:39:56;;;;;;;0.60;0.60;;;4.90;99.90;;;;;;4970255;28;20492;-89
2023/03/05 09:42:49;;;;;;;0.50;0.50;;;4.90;99.90;;;;;;4949441;28;20817;-87
2023/03/05 09:45:27;;;;;;;0.50;0.50;;;5.10;99.90;;;;;;4957157;28;20051;-87
2023/03/05 09:48:17;;;;;;;0.60;0.60;;;5.20;99.90;;;;;;4961570;28;20050;-89
2023/03/05 09:50:49;;;;;;;0.60;0.60;;;5.30;99.90;;;;;;4955533;28;20040;-88
2023/03/05 09:53:35;;;;;;;0.60;0.60;;;5.40;99.90;;;;;;4978661;28;20384;-88
2023/03/05 09:56:12;;;;;;;0.60;0.60;;;5.60;99.90;;;;;;4949913;28;20100;-88
2023/03/05 09:58:51;;;;;;;;;;;5.80;99.90;;;;;;4961817;28;20051;-89
2023/03/05 10:01:27;;;;;;;0.50;0.50;;;5.90;99.90;;;;;;4944721;28;20390;-88
2023/03/05 10:03:58;;;;;;;2.40;2.28;;;5.90;99.90;;;;;;4976426;28;20138;-88
2023/03/05 10:06:26;;;;;;;0.40;0.40;;;6.60;99.90;;;;;;4950961;28;20403;-87
2023/03/05 10:09:19;;;;;;;0.60;0.60;;;6.00;99.90;;;;;;4955696;28;20054;-88
2023/03/05 10:12:03;;;;;;;0.45;0.45;;;5.90;99.90;;;;;;4956434;28;20035;-89
2023/03/05 10:14:34;;;;;;;0.40;0.40;;;5.80;99.90;;;;;;4946365;28;20393;-89
2023/03/05 10:17:21;;;;;;;0.60;0.60;;;5.70;99.90;;;;;;4965040;28;20046;-91
2023/03/05 10:20:03;;;;;;;0.70;0.70;;;5.60;99.90;;;;;;4945852;28;20043;-91
2023/03/05 10:23:07;;;;;;;0.50;0.50;;;5.60;99.90;;;;;;4989077;28;20053;-90
2023/03/05 10:26:04;;;;;;;0.50;0.50;;;5.60;99.90;;;;;;4964964;28;20047;-86
2023/03/05 10:28:51;;;;;;;0.50;0.50;;;5.70;99.90;;;;;;4968708;28;20054;-86
2023/03/05 10:31:40;;;;;;;0.50;0.50;;;5.80;99.90;;;;;;4964173;28;20303;-84
2023/03/05 10:34:45;;;;;;;0.50;0.50;;;5.90;99.90;;;;;;4961814;28;20050;-85
2023/03/05 10:37:29;;;;;;;0.50;0.50;;;5.90;99.90;;;;;;4957411;28;20096;-86
2023/03/05 10:40:14;;;;;;;0.55;0.55;;;5.90;99.90;;;;;;4961070;28;20050;-85
2023/03/05 10:42:58;;;;;;;0.93;0.82;;;5.90;99.90;;;;;;4968845;28;20078;-85
2023/03/05 10:45:26;;;;;;;1.45;1.35;;;6.00;99.90;;;;;;4973012;28;20104;-86
2023/03/05 10:48:03;;;;;;;0.45;0.45;;;6.20;99.90;;;;;;4995945;28;20497;-85
2023/03/05 10:51:01;;;;;;;0.50;0.50;;;6.20;99.90;;;;;;4948820;28;20059;-86
2023/03/05 10:53:26;;;;;;;0.57;0.57;;;6.20;99.90;;;;;;4955875;28;20074;-86
2023/03/05 10:55:55;;;;;;;0.60;0.60;;;6.10;99.90;;;;;;4965255;28;20489;-86
2023/03/05 10:58:22;;;;;;;0.60;0.60;;;6.20;99.90;;;;;;4935459;28;20491;-87
2023/03/05 11:01:11;;;;;;;0.50;0.50;;;6.30;99.90;;;;;;4969527;28;20342;-87
2023/03/05 11:03:59;;;;;;;0.60;0.60;;;6.50;99.90;;;;;;4956512;28;20822;-85
2023/03/05 11:06:27;;;;;;;4.03;1.05;;;6.70;99.90;;;;;;4967290;28;20377;-86
2023/03/05 11:08:53;;;;;;;0.60;0.60;;;6.80;99.90;;;;;;4955562;28;20046;-85
2023/03/05 11:11:20;;;;;;;0.60;0.60;;;6.80;99.90;;;;;;4968043;28;20062;-86
2023/03/05 11:13:52;;;;;;;0.60;0.60;;;6.60;99.90;;;;;;4954783;28;20046;-86
2023/03/05 11:16:22;;;;;;;0.60;0.60;;;6.50;99.90;;;;;;4950626;28;20081;-86
2023/03/05 11:18:48;;;;;;;0.47;0.47;;;6.40;99.90;;;;;;4978374;28;20042;-85
2023/03/05 11:21:26;;;;;;;0.50;0.50;;;6.50;99.90;;;;;;4967484;28;20147;-85
2023/03/05 11:24:12;;;;;;;0.50;0.50;;;6.60;99.90;;;;;;4949840;28;20061;-87
2023/03/05 11:26:46;;;;;;;0.60;0.60;;;6.90;99.90;;;;;;4968281;28;20058;-86
2023/03/05 11:29:28;;;;;;;0.50;0.50;;;6.90;99.90;;;;;;4967576;28;20057;-86
2023/03/05 11:31:55;;;;;;;0.60;0.60;;;6.90;99.90;;;;;;4961176;28;20047;-86
2023/03/05 11:34:33;;;;;;;0.47;0.47;;;6.70;99.90;;;;;;4966403;28;20798;-86
2023/03/05 11:37:02;;;;;;;0.35;0.35;;;6.60;99.90;;;;;;4946159;28;20050;-85
2023/03/05 11:39:31;;;;;;;0.60;0.60;;;6.50;99.90;;;;;;4948945;28;20049;-85
2023/03/05 11:42:23;;;;;;;0.47;0.47;;;6.50;99.90;;;;;;4951157;28;20046;-85
2023/03/05 11:44:54;;;;;;;0.50;0.50;;;6.50;99.90;;;;;;4962636;28;20501;-85
2023/03/05 11:47:27;;;;;;;0.43;0.43;;;6.60;99.90;;;;;;4960598;28;20042;-86
2023/03/05 11:50:22;;;;;;;0.50;0.50;;;6.80;99.90;;;;;;4970924;28;20043;-86
2023/03/05 11:52:55;;;;;;;0.50;0.50;;;6.90;99.90;;;;;;4973666;28;20143;-85
2023/03/05 11:55:39;;;;;;;0.45;0.45;;;6.80;99.90;;;;;;4976768;28;20043;-84
2023/03/05 11:58:29;;;;;;;0.57;0.57;;;6.70;99.90;;;;;;4956027;28;20039;-84
2023/03/05 12:00:56;;;;;;;0.50;0.50;;;6.70;99.90;;;;;;4964167;28;20084;-85
2023/03/05 12:03:26;;;;;;;1.05;1.05;;;6.70;99.90;;;;;;4935392;28;20043;-85
2023/03/05 12:06:16;;;;;;;1.25;1.15;;;6.70;99.90;;;;;;4947215;28;20042;-86
2023/03/05 12:08:47;;;;;;;0.60;0.60;;;6.70;99.90;;;;;;4949345;28;20042;-84
2023/03/05 12:11:25;;;;;;;0.40;0.40;;;6.80;99.90;;;;;;4961484;28;20120;-85
2023/03/05 12:13:53;;;;;;;0.40;0.40;;;7.00;99.90;;;;;;4971673;28;20059;-85
2023/03/05 12:16:45;;;;;;;0.52;0.52;;;7.10;99.90;;;;;;4978533;28;20411;-86
2023/03/05 12:19:37;;;;;;;0.50;0.50;;;7.30;99.90;;;;;;4949421;28;20043;-86
2023/03/05 12:22:13;;;;;;;0.82;0.80;;;7.50;99.90;;;;;;4966266;28;20038;-86
2023/03/05 12:24:39;;;;;;;0.47;0.47;;;7.40;99.90;;;;;;4960640;28;20065;-86
2023/03/05 12:27:08;;;;;;;0.50;0.50;;;7.20;99.90;;;;;;4959980;28;20043;-84
2023/03/05 12:29:53;;;;;;;0.50;0.50;;;6.90;99.90;;;;;;4963214;28;20043;-85
2023/03/05 12:32:22;;;;;;;0.60;0.60;;;6.60;99.90;;;;;;4948479;28;20039;-85
2023/03/05 12:35:04;;;;;;;0.55;0.55;;;6.40;99.90;;;;;;4953277;28;20054;-85
2023/03/05 12:37:30;;;;;;;1.17;1.02;;;6.40;99.90;;;;;;4947730;28;20043;-86
2023/03/05 12:40:21;;;;;;;0.60;0.60;;;6.70;99.90;;;;;;4967037;28;20551;-86
2023/03/05 12:42:51;;;;;;;0.60;0.60;;;6.70;99.90;;;;;;4961126;28;20097;-87
2023/03/05 12:45:18;;;;;;;0.50;0.50;;;6.80;99.90;;;;;;4969536;28;20515;-86
2023/03/05 12:48:11;;;;;;;0.60;0.60;;;6.80;99.90;;;;;;4952603;28;20074;-85
2023/03/05 12:50:36;;;;;;;0.40;0.40;;;6.90;99.90;;;;;;4952629;28;20452;-85
2023/03/05 12:53:17;;;;;;;0.50;0.50;;;6.90;99.90;;;;;;4976188;28;20077;-85
2023/03/05 12:55:46;;;;;;;0.50;0.50;;;6.90;99.90;;;;;;4949545;28;20372;-85
2023/03/05 12:58:20;;;;;;;0.65;0.65;;;7.00;99.90;;;;;;4965900;28;20131;-84
2023/03/05 13:00:55;;;;;;;0.50;0.50;;;7.10;99.90;;;;;;4966753;28;20039;-85
2023/03/05 13:03:38;;;;;;;0.40;0.40;;;7.30;99.90;;;;;;4953346;28;20035;-86
2023/03/05 13:06:05;;;;;;;0.50;0.50;;;7.40;99.90;;;;;;4985023;28;20046;-85
2023/03/05 13:08:34;;;;;;;0.57;0.57;;;7.60;99.90;;;;;;4973691;28;20093;-85
2023/03/05 13:11:02;;;;;;;0.60;0.60;;;7.80;99.90;;;;;;4953175;28;20129;-85